Time;durP1;ratioP1;P1;durP2;ratioP2;P2;SDS_P1;SDS_P2;PMS_P1;PMS_P2;Temp;Humidity;BMP_temperature;BMP_pressure;BME280_temperature;BME280_humidity;BME280_pressure;Samples;Min_cycle;Max_cycle;Signal;HPM_P1;HPM_P2
2024/03/09 00:00:39;;;;;;;2.83;1.67;;;;;;;;;;5030033;28;20044;-62
2024/03/09 00:03:05;;;;;;;2.63;1.67;;;;;;;;;;5027964;28;20037;-63
2024/03/09 00:05:31;;;;;;;2.30;1.55;;;;;;;;;;5029163;28;20045;-63
2024/03/09 00:07:57;;;;;;;2.40;1.70;;;;;;;;;;5026321;28;20045;-70
2024/03/09 00:10:26;;;;;;;2.63;1.85;;;;;;;;;;5028084;28;20044;-65
2024/03/09 00:12:52;;;;;;;2.08;1.60;;;;;;;;;;5028338;28;20499;-65
2024/03/09 00:15:19;;;;;;;2.28;1.70;;;;;;;;;;5026379;28;20487;-68
2024/03/09 00:17:47;;;;;;;2.28;1.70;;;;;;;;;;5028196;28;20095;-65
2024/03/09 00:20:19;;;;;;;2.35;1.50;;;;;;;;;;5029300;28;20500;-64
2024/03/09 00:22:45;;;;;;;2.50;1.80;;;;;;;;;;5030264;28;20140;-64
2024/03/09 00:25:10;;;;;;;2.83;1.50;;;;;;;;;;5028811;28;20053;-68
2024/03/09 00:27:37;;;;;;;2.38;1.77;;;;;;;;;;5026271;28;20064;-65
2024/03/09 00:30:06;;;;;;;2.70;1.80;;;;;;;;;;5027883;28;20029;-67
2024/03/09 00:32:32;;;;;;;2.83;1.73;;;;;;;;;;5028798;28;20479;-67
2024/03/09 00:34:58;;;;;;;2.15;1.85;;;;;;;;;;5023129;28;20029;-67
2024/03/09 00:37:23;;;;;;;2.17;1.77;;;;;;;;;;5026842;28;20543;-64
2024/03/09 00:39:48;;;;;;;3.10;2.10;;;;;;;;;;5026626;28;20111;-64
2024/03/09 00:42:19;;;;;;;2.90;1.80;;;;;;;;;;5030009;28;20040;-68
2024/03/09 00:44:44;;;;;;;2.67;1.90;;;;;;;;;;5033250;28;20128;-69
2024/03/09 00:47:10;;;;;;;2.75;1.83;;;;;;;;;;5031183;28;20133;-69
2024/03/09 00:49:35;;;;;;;3.03;1.92;;;;;;;;;;5032257;28;20182;-65
2024/03/09 00:52:03;;;;;;;2.70;1.83;;;;;;;;;;5033084;28;20029;-66
2024/03/09 00:54:28;;;;;;;3.20;2.00;;;;;;;;;;5040401;28;20790;-65
2024/03/09 00:56:54;;;;;;;3.17;1.90;;;;;;;;;;5031841;28;20053;-64
2024/03/09 00:59:19;;;;;;;2.85;1.98;;;;;;;;;;5028803;28;20041;-66
2024/03/09 01:01:55;;;;;;;3.03;1.80;;;;;;;;;;5031509;28;20120;-64
2024/03/09 01:04:21;;;;;;;2.60;1.70;;;;;;;;;;5030999;28;20025;-65
2024/03/09 01:06:46;;;;;;;2.67;1.90;;;;;;;;;;5022583;28;20030;-65
2024/03/09 01:09:13;;;;;;;2.40;2.10;;;;;;;;;;5018173;28;20030;-67
2024/03/09 01:11:39;;;;;;;3.72;2.40;;;;;;;;;;5018943;28;20532;-64
2024/03/09 01:14:06;;;;;;;2.92;2.10;;;;;;;;;;5031032;28;20125;-64
2024/03/09 01:16:31;;;;;;;3.00;1.90;;;;;;;;;;5031547;28;20427;-69
2024/03/09 01:19:00;;;;;;;2.83;1.90;;;;;;;;;;5032287;28;20524;-63
2024/03/09 01:21:28;;;;;;;2.63;1.90;;;;;;;;;;5032253;28;20411;-67
2024/03/09 01:23:54;;;;;;;3.33;2.20;;;;;;;;;;5026759;28;20126;-63
2024/03/09 01:26:19;;;;;;;3.28;1.98;;;;;;;;;;5031352;28;20038;-63
2024/03/09 01:28:45;;;;;;;2.65;1.95;;;;;;;;;;5027600;28;20618;-63
2024/03/09 01:31:12;;;;;;;3.05;2.08;;;;;;;;;;5020935;28;20063;-66
2024/03/09 01:33:38;;;;;;;3.25;2.17;;;;;;;;;;5031657;28;20206;-64
2024/03/09 01:36:09;;;;;;;2.78;1.90;;;;;;;;;;5031162;28;20048;-64
2024/03/09 01:38:34;;;;;;;2.75;1.95;;;;;;;;;;5030631;28;20057;-67
2024/03/09 01:41:00;;;;;;;2.67;1.85;;;;;;;;;;5031779;28;20045;-63
2024/03/09 01:43:25;;;;;;;2.50;2.00;;;;;;;;;;5032110;28;20056;-66
2024/03/09 01:45:50;;;;;;;2.83;2.03;;;;;;;;;;5030981;28;20087;-63
2024/03/09 01:48:20;;;;;;;2.67;2.13;;;;;;;;;;5025555;28;20124;-64
2024/03/09 01:50:45;;;;;;;2.73;2.03;;;;;;;;;;5031030;28;20021;-65
2024/03/09 01:53:11;;;;;;;2.83;2.03;;;;;;;;;;5023885;28;20044;-67
2024/03/09 01:55:36;;;;;;;2.88;2.25;;;;;;;;;;5031852;28;20033;-66
2024/03/09 01:58:02;;;;;;;2.83;2.00;;;;;;;;;;5028954;28;20476;-66
2024/03/09 02:00:29;;;;;;;2.70;2.08;;;;;;;;;;5023023;28;20034;-65
2024/03/09 02:02:54;;;;;;;2.75;2.00;;;;;;;;;;5030175;28;20033;-63
2024/03/09 02:05:26;;;;;;;3.85;2.13;;;;;;;;;;5030988;28;20200;-63
2024/03/09 02:07:52;;;;;;;3.03;2.05;;;;;;;;;;5029287;28;20040;-69
2024/03/09 02:10:18;;;;;;;3.40;2.17;;;;;;;;;;5029886;28;20017;-65
2024/03/09 02:12:44;;;;;;;3.08;2.00;;;;;;;;;;5032485;28;20047;-63
2024/03/09 02:15:12;;;;;;;2.60;2.05;;;;;;;;;;5029323;28;20120;-65
2024/03/09 02:17:38;;;;;;;3.13;2.15;;;;;;;;;;5030837;28;20458;-69
2024/03/09 02:20:09;;;;;;;2.75;2.22;;;;;;;;;;5030789;28;20038;-63
2024/03/09 02:22:34;;;;;;;3.17;2.25;;;;;;;;;;5032490;28;20041;-64
2024/03/09 02:24:59;;;;;;;3.20;2.15;;;;;;;;;;5030712;28;20123;-63
2024/03/09 02:27:25;;;;;;;2.63;2.10;;;;;;;;;;5029150;28;20033;-63
2024/03/09 02:29:52;;;;;;;3.13;2.28;;;;;;;;;;5031617;28;20045;-67
2024/03/09 02:32:17;;;;;;;3.53;2.30;;;;;;;;;;5032051;28;20033;-65
2024/03/09 02:34:42;;;;;;;3.25;2.30;;;;;;;;;;5031794;28;20049;-69
2024/03/09 02:37:08;;;;;;;2.95;2.00;;;;;;;;;;5029440;28;20042;-67
2024/03/09 02:39:33;;;;;;;2.88;2.13;;;;;;;;;;5028638;28;20056;-65
2024/03/09 02:41:59;;;;;;;2.85;2.10;;;;;;;;;;5031984;28;20120;-63
2024/03/09 02:44:27;;;;;;;3.15;2.30;;;;;;;;;;5029453;28;20037;-64
2024/03/09 02:46:53;;;;;;;3.15;2.50;;;;;;;;;;5024454;28;20400;-67
2024/03/09 02:49:19;;;;;;;2.80;2.03;;;;;;;;;;5029343;28;20033;-67
2024/03/09 02:51:46;;;;;;;3.28;2.15;;;;;;;;;;5031300;28;20052;-63
2024/03/09 02:54:12;;;;;;;3.00;2.10;;;;;;;;;;5030948;28;20057;-65
2024/03/09 02:56:39;;;;;;;3.55;2.40;;;;;;;;;;5028639;28;20037;-63
2024/03/09 02:59:04;;;;;;;3.20;2.30;;;;;;;;;;5028270;28;20048;-67
2024/03/09 03:01:29;;;;;;;3.13;2.33;;;;;;;;;;5029609;28;20037;-68
2024/03/09 03:04:02;;;;;;;3.78;2.30;;;;;;;;;;5031041;28;20128;-64
2024/03/09 03:06:28;;;;;;;3.55;2.67;;;;;;;;;;5028258;28;20034;-64
2024/03/09 03:08:57;;;;;;;3.15;2.50;;;;;;;;;;5029795;28;20132;-64
2024/03/09 03:11:22;;;;;;;3.25;2.53;;;;;;;;;;5019980;28;20075;-65
2024/03/09 03:13:48;;;;;;;2.70;2.20;;;;;;;;;;5023577;28;20049;-66
2024/03/09 03:16:26;;;;;;;2.90;2.20;;;;;;;;;;5028541;28;20033;-67
2024/03/09 03:18:51;;;;;;;3.13;2.40;;;;;;;;;;5028942;28;20045;-63
2024/03/09 03:21:16;;;;;;;3.30;2.40;;;;;;;;;;5030749;28;20034;-67
2024/03/09 03:23:42;;;;;;;2.58;1.88;;;;;;;;;;5030515;28;20452;-63
2024/03/09 03:26:12;;;;;;;3.00;2.58;;;;;;;;;;5029230;28;20040;-64
2024/03/09 03:28:37;;;;;;;3.30;2.10;;;;;;;;;;5026390;28;20191;-66
2024/03/09 03:31:05;;;;;;;3.38;2.17;;;;;;;;;;5030241;28;20125;-67
2024/03/09 03:33:32;;;;;;;3.70;2.63;;;;;;;;;;5024268;28;20052;-64
2024/03/09 03:35:57;;;;;;;3.67;2.40;;;;;;;;;;5030036;28;20041;-64
2024/03/09 03:38:22;;;;;;;3.53;2.53;;;;;;;;;;5029232;28;20041;-65
2024/03/09 03:40:48;;;;;;;3.33;2.50;;;;;;;;;;5029834;28;20524;-65
2024/03/09 03:43:13;;;;;;;2.70;2.15;;;;;;;;;;5029579;28;20583;-65
2024/03/09 03:45:38;;;;;;;3.20;2.35;;;;;;;;;;5028967;28;20143;-67
2024/03/09 03:48:05;;;;;;;2.92;2.38;;;;;;;;;;5025660;28;20061;-68
2024/03/09 03:50:30;;;;;;;4.53;2.47;;;;;;;;;;5029141;28;20045;-63
2024/03/09 03:52:55;;;;;;;3.13;2.40;;;;;;;;;;5029986;28;20116;-66
2024/03/09 03:55:21;;;;;;;3.08;2.13;;;;;;;;;;5029908;28;20616;-65
2024/03/09 03:57:47;;;;;;;2.90;2.50;;;;;;;;;;5028748;28;20084;-67
2024/03/09 04:00:13;;;;;;;2.97;2.30;;;;;;;;;;5026959;28;20037;-63
2024/03/09 04:02:41;;;;;;;2.80;2.10;;;;;;;;;;5029974;28;20052;-63
2024/03/09 04:05:07;;;;;;;3.17;2.47;;;;;;;;;;5027983;28;20068;-67
2024/03/09 04:07:33;;;;;;;2.88;2.22;;;;;;;;;;5029602;28;20124;-67
2024/03/09 04:10:01;;;;;;;3.20;2.38;;;;;;;;;;5030178;28;20060;-64
2024/03/09 04:12:29;;;;;;;3.28;2.45;;;;;;;;;;5029557;28;20130;-63
2024/03/09 04:14:57;;;;;;;3.20;2.65;;;;;;;;;;5028089;28;20037;-63
2024/03/09 04:17:23;;;;;;;3.17;2.33;;;;;;;;;;5027081;28;20423;-63
2024/03/09 04:19:49;;;;;;;3.08;2.30;;;;;;;;;;5029248;28;20046;-68
2024/03/09 04:22:14;;;;;;;3.67;2.35;;;;;;;;;;5019120;28;20088;-66
2024/03/09 04:24:43;;;;;;;2.88;2.38;;;;;;;;;;5028726;28;20504;-66
2024/03/09 04:27:10;;;;;;;3.22;2.45;;;;;;;;;;5027850;28;20457;-65
2024/03/09 04:29:36;;;;;;;3.28;2.35;;;;;;;;;;5029485;28;20100;-63
2024/03/09 04:32:01;;;;;;;3.05;2.40;;;;;;;;;;5030120;28;20037;-66
2024/03/09 04:34:27;;;;;;;3.80;2.60;;;;;;;;;;5028106;28;20060;-67
2024/03/09 04:36:52;;;;;;;3.05;2.25;;;;;;;;;;5024448;28;20026;-65
2024/03/09 04:39:18;;;;;;;2.97;2.38;;;;;;;;;;5020239;28;20037;-66
2024/03/09 04:41:44;;;;;;;3.35;2.30;;;;;;;;;;5029422;28;20060;-64
2024/03/09 04:44:09;;;;;;;3.35;2.25;;;;;;;;;;5030274;28;20034;-64
2024/03/09 04:46:36;;;;;;;4.75;2.67;;;;;;;;;;5017938;28;20041;-66
2024/03/09 04:49:03;;;;;;;3.47;2.40;;;;;;;;;;5028749;28;20034;-67
2024/03/09 04:51:29;;;;;;;3.25;2.42;;;;;;;;;;5026769;28;20933;-63
2024/03/09 04:53:54;;;;;;;2.85;2.33;;;;;;;;;;5029606;28;20037;-63
2024/03/09 04:56:19;;;;;;;2.47;1.98;;;;;;;;;;5027099;28;20029;-65
2024/03/09 04:58:45;;;;;;;4.28;2.38;;;;;;;;;;5027954;28;20037;-63
2024/03/09 05:01:11;;;;;;;3.55;2.33;;;;;;;;;;5028431;28;20034;-64
2024/03/09 05:03:36;;;;;;;2.90;2.28;;;;;;;;;;5028373;28;20025;-64
2024/03/09 05:06:01;;;;;;;3.50;2.40;;;;;;;;;;5028499;28;20026;-63
2024/03/09 05:08:26;;;;;;;4.10;2.60;;;;;;;;;;5021366;28;20038;-63
2024/03/09 05:10:55;;;;;;;2.90;2.17;;;;;;;;;;5026220;28;20030;-64
2024/03/09 05:13:20;;;;;;;3.58;2.45;;;;;;;;;;5028535;28;20038;-66
2024/03/09 05:15:49;;;;;;;3.30;2.33;;;;;;;;;;5027136;28;20048;-63
2024/03/09 05:18:15;;;;;;;9.93;2.35;;;;;;;;;;5029263;28;20515;-64
2024/03/09 05:20:40;;;;;;;3.63;2.40;;;;;;;;;;5026612;28;20033;-66
2024/03/09 05:23:10;;;;;;;2.85;1.92;;;;;;;;;;5028327;28;20129;-63
2024/03/09 05:25:36;;;;;;;4.97;2.23;;;;;;;;;;5028038;28;20120;-63
2024/03/09 05:28:03;;;;;;;3.83;2.35;;;;;;;;;;5029634;28;20423;-61
2024/03/09 05:30:28;;;;;;;3.80;2.47;;;;;;;;;;5030423;28;20040;-67
2024/03/09 05:32:54;;;;;;;3.00;2.45;;;;;;;;;;5023679;28;20117;-64
2024/03/09 05:35:20;;;;;;;3.00;2.05;;;;;;;;;;5029652;28;20033;-66
2024/03/09 05:37:45;;;;;;;2.85;2.30;;;;;;;;;;5024029;28;20049;-64
2024/03/09 05:40:13;;;;;;;3.40;2.22;;;;;;;;;;5027840;28;20453;-64
2024/03/09 05:42:38;;;;;;;3.22;2.40;;;;;;;;;;5031225;28;20030;-64
2024/03/09 05:45:05;;;;;;;3.10;2.38;;;;;;;;;;5030162;28;20044;-63
2024/03/09 05:47:30;;;;;;;2.97;2.20;;;;;;;;;;5019933;28;20042;-66
2024/03/09 05:49:55;;;;;;;2.80;2.20;;;;;;;;;;5030540;28;20102;-66
2024/03/09 05:52:20;;;;;;;3.20;2.40;;;;;;;;;;5030526;28;20025;-64
2024/03/09 05:54:48;;;;;;;2.88;2.30;;;;;;;;;;5031294;28;20025;-65
2024/03/09 05:57:17;;;;;;;3.63;2.35;;;;;;;;;;5030445;28;20022;-64
2024/03/09 05:59:42;;;;;;;2.78;2.30;;;;;;;;;;5029927;28;20980;-64
2024/03/09 06:02:09;;;;;;;2.85;2.10;;;;;;;;;;5031278;28;20024;-62
2024/03/09 06:04:35;;;;;;;4.22;2.50;;;;;;;;;;5016883;28;20053;-67
2024/03/09 06:07:00;;;;;;;3.50;2.38;;;;;;;;;;5019051;28;20111;-62
2024/03/09 06:09:26;;;;;;;2.78;2.15;;;;;;;;;;5029022;28;20033;-62
2024/03/09 06:11:52;;;;;;;3.13;2.40;;;;;;;;;;5025543;28;20021;-63
2024/03/09 06:14:20;;;;;;;4.50;2.45;;;;;;;;;;5027156;28;20017;-63
2024/03/09 06:16:46;;;;;;;3.40;2.22;;;;;;;;;;5027192;28;20045;-63
2024/03/09 06:19:11;;;;;;;3.28;2.20;;;;;;;;;;5026426;28;20037;-63
2024/03/09 06:21:36;;;;;;;2.85;2.13;;;;;;;;;;5031288;28;20025;-65
2024/03/09 06:24:02;;;;;;;2.72;2.17;;;;;;;;;;5030272;28;20037;-62
2024/03/09 06:26:29;;;;;;;2.67;2.35;;;;;;;;;;5029261;28;20041;-62
2024/03/09 06:28:55;;;;;;;3.03;2.38;;;;;;;;;;5017488;28;20511;-62
2024/03/09 06:31:21;;;;;;;4.35;2.60;;;;;;;;;;5029127;28;20417;-63
2024/03/09 06:33:47;;;;;;;2.75;2.22;;;;;;;;;;5029709;28;20116;-64
2024/03/09 06:36:13;;;;;;;2.88;2.20;;;;;;;;;;5029442;28;20531;-63
2024/03/09 06:38:40;;;;;;;2.33;2.10;;;;;;;;;;5028005;28;20042;-62
2024/03/09 06:41:06;;;;;;;2.97;2.10;;;;;;;;;;5019584;28;20052;-66
2024/03/09 06:43:31;;;;;;;3.03;2.05;;;;;;;;;;5040449;28;20468;-65
2024/03/09 06:45:59;;;;;;;3.00;2.22;;;;;;;;;;5030622;28;20129;-62
2024/03/09 06:48:24;;;;;;;3.17;2.58;;;;;;;;;;5026481;28;20131;-63
2024/03/09 06:50:50;;;;;;;2.70;2.10;;;;;;;;;;5027673;28;20080;-66
2024/03/09 06:53:15;;;;;;;1.92;1.73;;;;;;;;;;5028163;28;20041;-62
2024/03/09 06:55:44;;;;;;;3.58;2.35;;;;;;;;;;5029598;28;20508;-64
2024/03/09 06:58:11;;;;;;;3.15;2.30;;;;;;;;;;5027614;28;20041;-62
2024/03/09 07:00:37;;;;;;;3.22;2.53;;;;;;;;;;5026658;28;20397;-62
2024/03/09 07:03:04;;;;;;;3.00;2.30;;;;;;;;;;5014424;28;20417;-63
2024/03/09 07:05:34;;;;;;;2.88;2.10;;;;;;;;;;5003097;28;20594;-62
2024/03/09 07:08:00;;;;;;;3.40;2.40;;;;;;;;;;5021894;28;20034;-62
2024/03/09 07:10:27;;;;;;;4.03;2.50;;;;;;;;;;5012262;28;20044;-61
2024/03/09 07:12:58;;;;;;;3.38;2.30;;;;;;;;;;5013850;28;20057;-61
2024/03/09 07:15:25;;;;;;;2.90;2.35;;;;;;;;;;5010582;28;20124;-62
2024/03/09 07:17:53;;;;;;;4.15;2.50;;;;;;;;;;5014155;28;20037;-63
2024/03/09 07:20:23;;;;;;;2.90;2.40;;;;;;;;;;5012947;28;20044;-62
2024/03/09 07:22:49;;;;;;;2.80;2.33;;;;;;;;;;5015292;28;20630;-62
2024/03/09 07:25:15;;;;;;;4.03;2.33;;;;;;;;;;5014124;28;20036;-61
2024/03/09 07:27:41;;;;;;;4.15;2.40;;;;;;;;;;5016128;28;20038;-62
2024/03/09 07:30:10;;;;;;;3.55;2.30;;;;;;;;;;5015832;28;20037;-62
2024/03/09 07:32:35;;;;;;;2.83;2.30;;;;;;;;;;5012250;28;20028;-66
2024/03/09 07:35:16;;;;;;;3.33;2.45;;;;;;;;;;5013799;28;20121;-64
2024/03/09 07:37:45;;;;;;;3.47;2.80;;;;;;;;;;5013265;28;20516;-66
2024/03/09 07:40:11;;;;;;;3.63;2.10;;;;;;;;;;5014454;28;20147;-61
2024/03/09 07:42:38;;;;;;;3.50;2.50;;;;;;;;;;5013059;28;20033;-65
2024/03/09 07:45:07;;;;;;;3.25;2.45;;;;;;;;;;5013473;28;20056;-62
2024/03/09 07:47:35;;;;;;;3.22;2.47;;;;;;;;;;5014379;28;20034;-66
2024/03/09 07:50:01;;;;;;;3.90;2.45;;;;;;;;;;5011821;28;20165;-62
2024/03/09 07:52:26;;;;;;;3.28;2.50;;;;;;;;;;5012560;28;20720;-62
2024/03/09 07:54:51;;;;;;;7.25;5.47;;;;;;;;;;5011340;28;20073;-62
2024/03/09 07:57:20;;;;;;;5.80;3.90;;;;;;;;;;5016498;28;20041;-65
2024/03/09 07:59:45;;;;;;;4.85;2.90;;;;;;;;;;5012679;28;20124;-62
2024/03/09 08:02:12;;;;;;;3.25;2.65;;;;;;;;;;5015001;28;20117;-64
2024/03/09 08:04:39;;;;;;;3.47;2.58;;;;;;;;;;5013906;28;20101;-65
2024/03/09 08:07:04;;;;;;;3.38;2.88;;;;;;;;;;5016533;28;20040;-61
2024/03/09 08:09:31;;;;;;;3.60;2.60;;;;;;;;;;5012421;28;20041;-61
2024/03/09 08:11:57;;;;;;;5.55;2.45;;;;;;;;;;5012148;28;20095;-60
2024/03/09 08:14:33;;;;;;;3.72;2.40;;;;;;;;;;5013002;28;20030;-61
2024/03/09 08:16:59;;;;;;;3.88;2.65;;;;;;;;;;5012205;28;20046;-63
2024/03/09 08:19:24;;;;;;;3.10;2.47;;;;;;;;;;5013313;28;20046;-60
2024/03/09 08:21:51;;;;;;;3.95;2.72;;;;;;;;;;5012528;28;20021;-63
2024/03/09 08:24:16;;;;;;;3.65;2.22;;;;;;;;;;5011392;28;20135;-62
2024/03/09 08:26:45;;;;;;;3.70;2.85;;;;;;;;;;5014523;28;20092;-62
2024/03/09 08:29:14;;;;;;;4.80;2.50;;;;;;;;;;5015047;28;21743;-63
2024/03/09 08:31:39;;;;;;;3.72;2.58;;;;;;;;;;5012496;28;20056;-62
2024/03/09 08:34:06;;;;;;;3.20;2.65;;;;;;;;;;5011663;28;20034;-64
2024/03/09 08:36:35;;;;;;;4.30;2.80;;;;;;;;;;5011590;28;20065;-61
2024/03/09 08:39:01;;;;;;;3.93;2.70;;;;;;;;;;5012014;28;20065;-61
2024/03/09 08:41:27;;;;;;;3.05;2.25;;;;;;;;;;5010060;28;20554;-61
2024/03/09 08:43:53;;;;;;;3.45;2.60;;;;;;;;;;5015420;28;20030;-61
2024/03/09 08:46:18;;;;;;;7.93;3.08;;;;;;;;;;5011708;28;20050;-64
2024/03/09 08:48:47;;;;;;;5.30;2.72;;;;;;;;;;5015400;28;20484;-63
2024/03/09 08:51:13;;;;;;;5.45;2.78;;;;;;;;;;5012685;28;20041;-63
2024/03/09 08:53:39;;;;;;;4.03;2.70;;;;;;;;;;5015103;28;20095;-64
2024/03/09 08:56:04;;;;;;;3.97;2.85;;;;;;;;;;5012036;28;20010;-64
2024/03/09 08:58:34;;;;;;;5.00;2.58;;;;;;;;;;5011218;28;20048;-65
2024/03/09 09:00:59;;;;;;;4.32;2.65;;;;;;;;;;5012550;28;20013;-66
2024/03/09 09:03:25;;;;;;;3.97;2.65;;;;;;;;;;5015224;28;20971;-64
2024/03/09 09:05:53;;;;;;;4.28;2.40;;;;;;;;;;5018979;28;20029;-62
2024/03/09 09:08:24;;;;;;;7.30;2.83;;;;;;;;;;5015839;28;20030;-62
2024/03/09 09:10:53;;;;;;;6.28;2.78;;;;;;;;;;5015822;28;20037;-63
2024/03/09 09:13:22;;;;;;;3.42;2.58;;;;;;;;;;5003687;28;20648;-63
2024/03/09 09:15:47;;;;;;;3.83;2.83;;;;;;;;;;5017473;28;20033;-64
2024/03/09 09:18:14;;;;;;;4.80;2.58;;;;;;;;;;5017239;28;20045;-63
2024/03/09 09:20:39;;;;;;;5.07;2.67;;;;;;;;;;5016560;28;20045;-64
2024/03/09 09:23:06;;;;;;;3.35;2.38;;;;;;;;;;5017521;28;20166;-64
2024/03/09 09:25:31;;;;;;;3.53;2.67;;;;;;;;;;5016052;28;20512;-63
2024/03/09 09:27:58;;;;;;;4.57;2.75;;;;;;;;;;5015525;28;20547;-63
2024/03/09 09:30:24;;;;;;;4.18;2.72;;;;;;;;;;5016227;28;20126;-62
2024/03/09 09:32:50;;;;;;;3.20;2.30;;;;;;;;;;5016611;28;20045;-64
2024/03/09 09:35:17;;;;;;;5.78;2.90;;;;;;;;;;5017578;28;20501;-62
2024/03/09 09:37:42;;;;;;;5.25;3.17;;;;;;;;;;5016075;28;20111;-62
2024/03/09 09:40:13;;;;;;;5.25;2.80;;;;;;;;;;5016359;28;20508;-64
2024/03/09 09:42:38;;;;;;;3.67;2.53;;;;;;;;;;5014454;28;20614;-63
2024/03/09 09:45:04;;;;;;;5.47;3.10;;;;;;;;;;5017721;28;20045;-62
2024/03/09 09:47:29;;;;;;;3.75;2.65;;;;;;;;;;5017939;28;20042;-61
2024/03/09 09:49:55;;;;;;;4.22;2.50;;;;;;;;;;5015008;28;20052;-61
2024/03/09 09:52:24;;;;;;;3.05;2.65;;;;;;;;;;5014824;28;20078;-62
2024/03/09 09:54:50;;;;;;;3.17;2.60;;;;;;;;;;5014429;28;20384;-62
2024/03/09 09:57:17;;;;;;;3.47;2.72;;;;;;;;;;5017152;28;20040;-60
2024/03/09 09:59:46;;;;;;;3.33;2.60;;;;;;;;;;5015729;28;20088;-62
2024/03/09 10:02:11;;;;;;;4.80;2.78;;;;;;;;;;5016471;28;20740;-60
2024/03/09 10:04:38;;;;;;;6.13;2.88;;;;;;;;;;5016793;28;20045;-62
2024/03/09 10:07:07;;;;;;;5.00;2.90;;;;;;;;;;5016638;28;20049;-60
2024/03/09 10:09:33;;;;;;;3.78;2.80;;;;;;;;;;5016916;28;20041;-60
2024/03/09 10:11:59;;;;;;;3.33;2.70;;;;;;;;;;5013583;28;20047;-63
2024/03/09 10:14:28;;;;;;;4.95;3.00;;;;;;;;;;5012967;28;20165;-61
2024/03/09 10:16:53;;;;;;;4.70;2.83;;;;;;;;;;5015525;28;20037;-61
2024/03/09 10:19:19;;;;;;;4.65;2.90;;;;;;;;;;5015532;28;20049;-62
2024/03/09 10:21:45;;;;;;;3.63;2.60;;;;;;;;;;5018711;28;20041;-63
2024/03/09 10:24:11;;;;;;;4.78;2.78;;;;;;;;;;5008986;28;20115;-62
2024/03/09 10:26:37;;;;;;;5.15;3.10;;;;;;;;;;5015578;28;20397;-61
2024/03/09 10:29:03;;;;;;;4.03;2.53;;;;;;;;;;5014708;28;20045;-63
2024/03/09 10:31:42;;;;;;;6.18;3.00;;;;;;;;;;5013507;28;20497;-62
2024/03/09 10:34:08;;;;;;;4.20;2.72;;;;;;;;;;5013569;28;20030;-66
2024/03/09 10:36:39;;;;;;;4.20;3.00;;;;;;;;;;5015071;28;20127;-63
2024/03/09 10:39:05;;;;;;;5.20;3.20;;;;;;;;;;5014524;28;20053;-64
2024/03/09 10:41:30;;;;;;;4.22;2.90;;;;;;;;;;5015955;28;20044;-62
2024/03/09 10:43:56;;;;;;;4.70;2.90;;;;;;;;;;5014425;28;20038;-61
2024/03/09 10:46:25;;;;;;;5.65;3.25;;;;;;;;;;5014128;28;20116;-61
2024/03/09 10:48:52;;;;;;;4.10;2.78;;;;;;;;;;5018287;28;20045;-63
2024/03/09 10:51:36;;;;;;;4.55;2.90;;;;;;;;;;5013253;28;20037;-62
2024/03/09 10:54:06;;;;;;;3.78;2.45;;;;;;;;;;5015541;28;20040;-62
2024/03/09 10:56:32;;;;;;;3.90;2.65;;;;;;;;;;5015372;28;20037;-61
2024/03/09 10:58:57;;;;;;;4.68;3.05;;;;;;;;;;5015752;28;20045;-61
2024/03/09 11:01:22;;;;;;;4.55;2.75;;;;;;;;;;5014559;28;20029;-64
2024/03/09 11:03:51;;;;;;;4.63;3.03;;;;;;;;;;5013442;28;20127;-61
2024/03/09 11:06:19;;;;;;;4.32;3.10;;;;;;;;;;5013418;28;20030;-61
2024/03/09 11:08:46;;;;;;;4.75;2.88;;;;;;;;;;5014283;28;20512;-63
2024/03/09 11:11:13;;;;;;;5.53;3.10;;;;;;;;;;5016236;28;20050;-64
2024/03/09 11:13:39;;;;;;;3.35;2.30;;;;;;;;;;5012885;28;20032;-63
2024/03/09 11:16:07;;;;;;;4.20;2.83;;;;;;;;;;5015298;28;20042;-63
2024/03/09 11:18:32;;;;;;;3.92;2.95;;;;;;;;;;5013738;28;20061;-62
2024/03/09 11:21:02;;;;;;;5.07;3.05;;;;;;;;;;5015658;28;20587;-62
2024/03/09 11:23:31;;;;;;;4.65;3.08;;;;;;;;;;5012314;28;20415;-65
2024/03/09 11:26:02;;;;;;;3.92;2.92;;;;;;;;;;5014283;28;20164;-60
2024/03/09 11:28:48;;;;;;;5.60;3.30;;;;;;;;;;5013413;28;20032;-61
2024/03/09 11:31:28;;;;;;;3.70;2.85;;;;;;;;;;5018195;28;20100;-61
2024/03/09 11:34:12;;;;;;;4.70;3.13;;;;;;;;;;5015184;28;20034;-64
2024/03/09 11:36:46;;;;;;;4.68;3.25;;;;;;;;;;5012103;28;20177;-63
2024/03/09 11:39:12;;;;;;;5.07;3.10;;;;;;;;;;5025062;28;20487;-62
2024/03/09 11:41:46;;;;;;;3.67;2.90;;;;;;;;;;5014810;28;20038;-62
2024/03/09 11:44:13;;;;;;;4.30;3.30;;;;;;;;;;5014560;28;20124;-61
2024/03/09 11:46:38;;;;;;;4.75;2.80;;;;;;;;;;5012883;28;20551;-61
2024/03/09 11:49:04;;;;;;;4.28;2.60;;;;;;;;;;5015453;28;20540;-61
2024/03/09 11:51:39;;;;;;;4.60;2.80;;;;;;;;;;5013652;28;20060;-61
2024/03/09 11:54:06;;;;;;;4.50;3.03;;;;;;;;;;5010648;28;20033;-61
2024/03/09 11:56:32;;;;;;;3.88;2.60;;;;;;;;;;5012058;28;20038;-62
2024/03/09 11:58:57;;;;;;;3.85;2.95;;;;;;;;;;5011851;28;20807;-67
2024/03/09 12:01:24;;;;;;;6.90;2.90;;;;;;;;;;5012567;28;20041;-60
2024/03/09 12:03:50;;;;;;;3.63;2.78;;;;;;;;;;5009687;28;20042;-62
2024/03/09 12:06:24;;;;;;;4.55;3.00;;;;;;;;;;5013946;28;20030;-62
2024/03/09 12:08:51;;;;;;;5.35;2.95;;;;;;;;;;5020808;28;20529;-61
2024/03/09 12:11:19;;;;;;;7.15;3.10;;;;;;;;;;5028317;28;20049;-62
2024/03/09 12:13:46;;;;;;;7.88;2.95;;;;;;;;;;5027807;28;20114;-66
2024/03/09 12:16:11;;;;;;;11.10;3.53;;;;;;;;;;5027046;28;20066;-65
2024/03/09 12:18:37;;;;;;;6.32;2.85;;;;;;;;;;5028709;28;20107;-61
2024/03/09 12:21:02;;;;;;;6.15;3.03;;;;;;;;;;5028328;28;20033;-62
2024/03/09 12:23:28;;;;;;;6.80;3.13;;;;;;;;;;5027398;28;20036;-61
2024/03/09 12:25:53;;;;;;;8.85;3.15;;;;;;;;;;5028144;28;20029;-63
2024/03/09 12:28:19;;;;;;;6.05;2.90;;;;;;;;;;5027752;28;20129;-61
2024/03/09 12:30:49;;;;;;;7.25;3.03;;;;;;;;;;5029044;28;20076;-61
2024/03/09 12:33:14;;;;;;;3.80;2.75;;;;;;;;;;5027371;28;20045;-63
2024/03/09 12:35:41;;;;;;;8.13;3.33;;;;;;;;;;5027436;28;20091;-62
2024/03/09 12:38:13;;;;;;;7.28;3.38;;;;;;;;;;5022110;28;20068;-63
2024/03/09 12:40:42;;;;;;;6.85;2.88;;;;;;;;;;5027605;28;20025;-60
2024/03/09 12:43:08;;;;;;;5.20;2.90;;;;;;;;;;5031748;28;20036;-63
2024/03/09 12:45:36;;;;;;;6.13;3.05;;;;;;;;;;5026995;28;20500;-63
2024/03/09 12:48:02;;;;;;;5.30;2.90;;;;;;;;;;5017669;28;20125;-61
2024/03/09 12:50:27;;;;;;;6.22;2.85;;;;;;;;;;5017653;28;20084;-62
2024/03/09 12:52:53;;;;;;;7.10;2.65;;;;;;;;;;5020036;28;20040;-62
2024/03/09 12:55:19;;;;;;;5.30;2.80;;;;;;;;;;5017552;28;20357;-61
2024/03/09 12:57:54;;;;;;;5.13;3.22;;;;;;;;;;5019408;28;20433;-59
2024/03/09 13:00:21;;;;;;;4.68;2.78;;;;;;;;;;5015671;28;20037;-62
2024/03/09 13:02:52;;;;;;;4.10;2.70;;;;;;;;;;5016775;28;20022;-60
2024/03/09 13:05:21;;;;;;;5.53;2.90;;;;;;;;;;5018896;28;20152;-62
2024/03/09 13:07:59;;;;;;;4.63;2.80;;;;;;;;;;5019335;28;20040;-60
2024/03/09 13:10:25;;;;;;;5.63;2.63;;;;;;;;;;5015381;28;20927;-62
2024/03/09 13:12:54;;;;;;;4.70;2.90;;;;;;;;;;5017462;28;20055;-60
2024/03/09 13:15:25;;;;;;;5.53;2.60;;;;;;;;;;5016679;28;20048;-62
2024/03/09 13:17:59;;;;;;;4.78;2.83;;;;;;;;;;5016391;28;20525;-63
2024/03/09 13:20:31;;;;;;;4.82;2.58;;;;;;;;;;5021167;28;20068;-63
2024/03/09 13:23:03;;;;;;;4.63;2.90;;;;;;;;;;5017228;28;20522;-60
2024/03/09 13:25:33;;;;;;;4.45;2.60;;;;;;;;;;5015712;28;20034;-63
2024/03/09 13:27:59;;;;;;;4.93;2.63;;;;;;;;;;5019749;28;20099;-60
2024/03/09 13:30:27;;;;;;;4.18;2.67;;;;;;;;;;5019804;28;20052;-63
2024/03/09 13:32:53;;;;;;;6.32;3.00;;;;;;;;;;5016606;28;20247;-62
2024/03/09 13:35:22;;;;;;;5.07;2.63;;;;;;;;;;5016777;28;20097;-62
2024/03/09 13:37:48;;;;;;;4.72;2.60;;;;;;;;;;5020381;28;20037;-63
2024/03/09 13:40:13;;;;;;;4.00;2.50;;;;;;;;;;5016749;28;20435;-65
2024/03/09 13:42:38;;;;;;;3.97;2.78;;;;;;;;;;5017695;28;20049;-61
2024/03/09 13:45:09;;;;;;;7.22;2.78;;;;;;;;;;5016419;28;20038;-61
2024/03/09 13:47:40;;;;;;;6.00;2.85;;;;;;;;;;5016576;28;20045;-60
2024/03/09 13:50:09;;;;;;;6.47;2.65;;;;;;;;;;5016823;28;20030;-64
2024/03/09 13:52:35;;;;;;;7.80;2.92;;;;;;;;;;5016944;28;20037;-61
2024/03/09 13:55:01;;;;;;;7.50;3.42;;;;;;;;;;5013821;28;20516;-61
2024/03/09 13:57:27;;;;;;;8.63;2.80;;;;;;;;;;5017797;28;20052;-61
2024/03/09 13:59:54;;;;;;;4.90;2.70;;;;;;;;;;5015626;28;20038;-61
2024/03/09 14:02:21;;;;;;;6.15;2.53;;;;;;;;;;5016948;28;20065;-60
2024/03/09 14:04:47;;;;;;;5.30;2.53;;;;;;;;;;5012179;28;20072;-64
2024/03/09 14:07:14;;;;;;;10.68;2.75;;;;;;;;;;5015020;28;20133;-65
2024/03/09 14:09:48;;;;;;;4.47;2.67;;;;;;;;;;5016419;28;20049;-62
2024/03/09 14:12:19;;;;;;;4.32;2.60;;;;;;;;;;5015906;28;20037;-62
2024/03/09 14:14:44;;;;;;;8.52;3.28;;;;;;;;;;5015423;28;20119;-61
2024/03/09 14:17:09;;;;;;;4.65;2.70;;;;;;;;;;5013874;28;20041;-61
2024/03/09 14:19:38;;;;;;;8.93;2.83;;;;;;;;;;5017840;28;20051;-61
2024/03/09 14:22:04;;;;;;;3.90;2.70;;;;;;;;;;5015296;28;20029;-61
2024/03/09 14:24:32;;;;;;;6.20;3.08;;;;;;;;;;5015649;28;20128;-60
2024/03/09 14:26:58;;;;;;;5.30;2.60;;;;;;;;;;5015577;28;20117;-63
2024/03/09 14:29:24;;;;;;;7.07;2.78;;;;;;;;;;5016113;28;20116;-62
2024/03/09 14:31:50;;;;;;;8.00;2.70;;;;;;;;;;5018716;28;20037;-61
2024/03/09 14:34:15;;;;;;;7.63;2.75;;;;;;;;;;5016081;28;20040;-65
2024/03/09 14:36:40;;;;;;;5.57;3.00;;;;;;;;;;5015454;28;20030;-62
2024/03/09 14:39:09;;;;;;;4.60;2.83;;;;;;;;;;5015200;28;20045;-61
2024/03/09 14:41:40;;;;;;;3.72;2.42;;;;;;;;;;5016098;28;20524;-62